createdAt,value
2022-10-23T00:00:12.702Z,10.90
2022-10-23T00:02:14.694Z,10.77
2022-10-23T00:04:20.349Z,11.02
2022-10-23T00:06:23.006Z,10.40
2022-10-23T00:08:24.864Z,11.38
2022-10-23T00:10:28.196Z,10.75
2022-10-23T00:12:30.225Z,9.40
2022-10-23T00:14:33.205Z,10.45
2022-10-23T00:16:35.644Z,11.05
2022-10-23T00:18:38.626Z,10.23
2022-10-23T00:20:40.642Z,10.75
2022-10-23T00:22:42.722Z,10.85
2022-10-23T00:24:45.571Z,11.30
2022-10-23T00:26:50.783Z,10.65
2022-10-23T00:28:54.559Z,11.35
2022-10-23T00:30:57.458Z,11.13
2022-10-23T00:32:59.299Z,11.93
2022-10-23T00:35:01.239Z,11.93
2022-10-23T00:37:03.133Z,12.00
2022-10-23T00:39:06.033Z,12.23
2022-10-23T00:41:09.993Z,12.30
2022-10-23T00:43:20.454Z,12.25
2022-10-23T00:45:26.652Z,13.48
2022-10-23T00:47:28.791Z,11.98
2022-10-23T00:49:32.478Z,11.77
2022-10-23T00:51:43.346Z,12.85
2022-10-23T00:54:00.965Z,12.07
2022-10-23T00:56:11.889Z,12.80
2022-10-23T00:58:18.444Z,12.25
2022-10-23T01:00:41.046Z,13.10
2022-10-23T01:02:43.341Z,12.55
2022-10-23T01:04:45.459Z,11.80
2022-10-23T01:06:49.812Z,11.77
2022-10-23T01:09:00.698Z,11.82
2022-10-23T01:11:15.254Z,12.23
2022-10-23T01:13:38.270Z,12.02
2022-10-23T01:16:02.895Z,12.05
2022-10-23T01:18:34.756Z,12.10
2022-10-23T01:20:43.724Z,11.70
2022-10-23T01:23:05.167Z,11.98
2022-10-23T01:25:36.185Z,12.80
2022-10-23T01:27:42.666Z,12.43
2022-10-23T01:29:49.952Z,11.45
2022-10-23T01:32:41.839Z,12.52
2022-10-23T01:38:57.302Z,12.70
2022-10-23T01:41:19.952Z,13.55
2022-10-23T01:43:30.380Z,13.27
2022-10-23T01:45:40.342Z,13.38
2022-10-23T01:47:43.692Z,13.73
2022-10-23T01:49:47.837Z,14.73
2022-10-23T01:51:54.573Z,13.50
2022-10-23T01:53:59.427Z,14.07
2022-10-23T01:56:05.979Z,15.45
2022-10-23T01:58:08.804Z,15.57
2022-10-23T02:00:14.404Z,13.70
2022-10-23T02:02:22.831Z,14.48
2022-10-23T02:04:36.729Z,14.27
2022-10-23T02:06:38.993Z,14.70
2022-10-23T02:08:40.998Z,14.48
2022-10-23T02:10:49.196Z,14.50
2022-10-23T02:12:58.425Z,14.27
2022-10-23T02:15:21.638Z,15.60
2022-10-23T02:17:46.465Z,15.23
2022-10-23T02:20:00.645Z,16.08
2022-10-23T02:22:11.027Z,14.60
2022-10-23T02:24:16.355Z,14.90
2022-10-23T02:26:24.395Z,14.35
2022-10-23T02:28:40.514Z,15.77
2022-10-23T02:30:46.692Z,15.10
2022-10-23T02:32:51.666Z,16.02
2022-10-23T02:34:53.632Z,15.52
2022-10-23T02:36:55.524Z,14.90
2022-10-23T02:38:57.681Z,15.27
2022-10-23T02:41:14.471Z,16.30
2022-10-23T02:43:34.353Z,15.40
2022-10-23T02:45:51.661Z,15.35
2022-10-23T02:48:04.332Z,15.65
2022-10-23T02:50:17.593Z,15.90
2022-10-23T02:52:28.526Z,16.30
2022-10-23T02:54:54.799Z,16.27
2022-10-23T02:57:40.099Z,16.40
2022-10-23T02:59:58.224Z,16.98
2022-10-23T03:02:16.694Z,16.45
2022-10-23T03:04:24.184Z,17.40
2022-10-23T03:06:26.667Z,18.48
2022-10-23T03:08:30.586Z,17.98
2022-10-23T03:10:32.657Z,17.27
2022-10-23T03:12:36.006Z,17.52
2022-10-23T03:14:41.014Z,17.73
2022-10-23T03:16:42.804Z,16.90
2022-10-23T03:18:44.900Z,16.98
2022-10-23T03:20:46.830Z,17.70
2022-10-23T03:22:48.986Z,16.92
2022-10-23T03:24:50.977Z,17.23
2022-10-23T03:26:52.788Z,18.40
2022-10-23T03:28:54.682Z,17.95
2022-10-23T03:30:56.562Z,17.08
2022-10-23T03:32:58.674Z,18.17
2022-10-23T03:35:00.759Z,17.90
2022-10-23T03:37:02.656Z,17.08
2022-10-23T03:39:05.698Z,18.52
2022-10-23T03:41:07.713Z,17.50
2022-10-23T03:43:09.620Z,18.60
2022-10-23T03:45:11.620Z,18.05
2022-10-23T03:47:13.768Z,17.35
2022-10-23T03:49:15.647Z,17.52
2022-10-23T03:51:17.465Z,17.33
2022-10-23T03:53:19.670Z,17.92
2022-10-23T03:55:21.804Z,17.27
2022-10-23T03:57:24.473Z,18.23
2022-10-23T03:59:26.372Z,17.20
2022-10-23T04:01:28.365Z,17.70
2022-10-23T04:03:30.275Z,17.63
2022-10-23T04:05:32.198Z,17.50
2022-10-23T04:07:34.207Z,16.55
2022-10-23T04:09:36.188Z,17.48
2022-10-23T04:11:39.049Z,16.88
2022-10-23T04:13:40.881Z,16.52
2022-10-23T04:15:49.749Z,15.90
2022-10-23T04:17:51.590Z,15.77
2022-10-23T04:19:53.481Z,15.55
2022-10-23T04:21:57.320Z,16.05
2022-10-23T04:23:59.113Z,16.55
2022-10-23T04:26:03.671Z,15.98
2022-10-23T04:28:05.747Z,16.30
2022-10-23T04:30:09.495Z,18.02
2022-10-23T04:32:11.435Z,17.95
2022-10-23T04:34:13.314Z,17.48
2022-10-23T04:36:15.386Z,16.40
2022-10-23T04:38:17.336Z,17.40
2022-10-23T04:40:19.265Z,18.30
2022-10-23T04:42:21.201Z,17.65
2022-10-23T04:44:23.166Z,17.75
2022-10-23T04:46:25.082Z,17.00
2022-10-23T04:48:29.117Z,16.98
2022-10-23T04:50:31.326Z,17.38
2022-10-23T04:52:33.343Z,18.00
2022-10-23T04:54:40.497Z,17.30
2022-10-23T04:56:42.413Z,15.70
2022-10-23T04:58:44.269Z,15.68
2022-10-23T05:00:47.337Z,17.55
2022-10-23T05:02:49.283Z,17.83
2022-10-23T05:04:51.332Z,16.73
2022-10-23T05:06:57.377Z,19.48
2022-10-23T05:08:59.365Z,17.25
2022-10-23T05:11:01.252Z,17.60
2022-10-23T05:13:04.151Z,18.52
2022-10-23T05:15:06.637Z,16.33
2022-10-23T05:17:21.243Z,16.60
2022-10-23T05:19:28.037Z,16.92
2022-10-23T05:21:35.601Z,17.05
2022-10-23T05:23:41.385Z,16.25
2022-10-23T05:25:43.294Z,15.93
2022-10-23T05:27:46.251Z,15.55
2022-10-23T05:29:48.098Z,16.98
2022-10-23T05:31:54.854Z,16.58
2022-10-23T05:33:57.128Z,16.35
2022-10-23T05:36:00.095Z,16.27
2022-10-23T05:38:02.775Z,15.52
2022-10-23T05:40:05.704Z,15.98
2022-10-23T05:42:07.752Z,15.98
2022-10-23T05:44:09.647Z,14.40
2022-10-23T05:46:11.511Z,14.20
2022-10-23T05:48:30.085Z,14.13
2022-10-23T05:50:38.896Z,14.25
2022-10-23T05:52:41.021Z,14.48
2022-10-23T05:54:46.032Z,14.23
2022-10-23T05:56:48.007Z,14.25
2022-10-23T05:58:49.975Z,14.65
2022-10-23T06:00:52.565Z,14.05
2022-10-23T06:02:54.432Z,12.95
2022-10-23T06:04:56.364Z,13.70
2022-10-23T06:06:58.329Z,13.10
2022-10-23T06:09:00.370Z,12.75
2022-10-23T06:11:07.868Z,13.00
2022-10-23T06:13:09.914Z,12.80
2022-10-23T06:15:12.141Z,13.18
2022-10-23T06:17:14.524Z,14.25
2022-10-23T06:19:16.458Z,12.63
2022-10-23T06:21:18.714Z,13.00
2022-10-23T06:23:20.675Z,13.77
2022-10-23T06:25:22.651Z,12.85
2022-10-23T06:27:24.547Z,13.27
2022-10-23T06:29:27.479Z,13.55
2022-10-23T06:31:29.332Z,13.13
2022-10-23T06:33:31.285Z,13.10
2022-10-23T06:35:33.198Z,13.38
2022-10-23T06:37:35.400Z,12.57
2022-10-23T06:39:37.322Z,13.13
2022-10-23T06:41:42.480Z,13.80
2022-10-23T06:43:44.797Z,13.75
2022-10-23T06:45:47.213Z,14.05
2022-10-23T06:47:52.308Z,13.98
2022-10-23T06:49:54.180Z,13.45
2022-10-23T06:51:56.178Z,12.18
2022-10-23T06:53:58.404Z,12.45
2022-10-23T06:56:01.384Z,13.02
2022-10-23T06:58:03.318Z,13.05
2022-10-23T07:00:05.832Z,14.40
2022-10-23T07:02:07.803Z,13.02
2022-10-23T07:04:09.863Z,12.13
2022-10-23T07:06:12.122Z,12.02
2022-10-23T07:08:14.820Z,13.00
2022-10-23T07:10:16.659Z,12.23
2022-10-23T07:12:18.637Z,12.02
2022-10-23T07:14:20.545Z,12.13
2022-10-23T07:16:23.919Z,11.85
2022-10-23T07:18:26.989Z,12.88
2022-10-23T07:20:28.959Z,11.77
2022-10-23T07:22:30.855Z,12.38
2022-10-23T07:24:37.203Z,11.43
2022-10-23T07:26:42.109Z,11.38
2022-10-23T07:28:46.669Z,11.15
2022-10-23T07:31:01.487Z,10.73
2022-10-23T07:33:04.501Z,10.73
2022-10-23T07:35:07.640Z,10.65
2022-10-23T07:37:09.645Z,11.45
2022-10-23T07:39:12.322Z,12.60
2022-10-23T07:41:14.537Z,12.02
2022-10-23T07:43:18.748Z,13.02
2022-10-23T07:45:20.704Z,13.07
2022-10-23T07:47:22.635Z,13.10
2022-10-23T07:49:24.529Z,12.48
2022-10-23T07:51:36.393Z,13.07
2022-10-23T07:53:39.032Z,13.25
2022-10-23T07:55:44.115Z,12.27
2022-10-23T07:57:46.104Z,12.27
2022-10-23T07:59:48.030Z,12.75
2022-10-23T08:01:52.704Z,12.43
2022-10-23T08:03:57.565Z,12.98
2022-10-23T08:06:00.193Z,13.20
2022-10-23T08:08:02.060Z,13.00
2022-10-23T08:10:04.385Z,13.82
2022-10-23T08:12:09.636Z,12.48
2022-10-23T08:14:11.585Z,12.52
2022-10-23T08:16:13.580Z,13.20
2022-10-23T08:18:16.261Z,12.32
2022-10-23T08:20:18.206Z,13.45
2022-10-23T08:22:20.090Z,11.80
2022-10-23T08:24:22.107Z,12.32
2022-10-23T08:26:25.431Z,12.75
2022-10-23T08:28:28.593Z,11.90
2022-10-23T08:30:30.864Z,12.20
2022-10-23T08:32:32.792Z,13.55
2022-10-23T08:34:34.791Z,12.20
2022-10-23T08:36:36.817Z,12.95
2022-10-23T08:38:38.790Z,12.70
2022-10-23T08:40:48.384Z,13.50
2022-10-23T08:43:11.472Z,13.63
2022-10-23T08:45:34.430Z,13.70
2022-10-23T08:47:55.983Z,13.23
2022-10-23T08:52:14.157Z,11.77
2022-10-23T08:54:28.282Z,12.77
2022-10-23T08:56:44.449Z,12.40
2022-10-23T08:59:09.360Z,11.80
2022-10-23T09:01:28.916Z,11.40
2022-10-23T09:03:30.949Z,11.70
2022-10-23T09:05:55.725Z,10.77
2022-10-23T09:08:00.689Z,11.73
2022-10-23T09:10:14.501Z,11.73
2022-10-23T09:12:25.291Z,11.45
2022-10-23T09:14:42.645Z,11.18
2022-10-23T09:16:50.830Z,11.10
2022-10-23T09:18:54.463Z,10.80
2022-10-23T09:20:56.336Z,11.77
2022-10-23T09:23:01.329Z,11.50
2022-10-23T09:25:03.301Z,11.73
2022-10-23T09:29:19.637Z,10.57
2022-10-23T09:31:21.706Z,11.30
2022-10-23T09:33:26.604Z,10.80
2022-10-23T09:35:30.742Z,12.25
2022-10-23T09:37:36.204Z,11.18
2022-10-23T09:39:38.195Z,11.02
2022-10-23T09:41:40.792Z,10.88
2022-10-23T09:43:43.455Z,10.98
2022-10-23T09:46:06.228Z,11.25
2022-10-23T09:48:14.664Z,10.82
2022-10-23T09:50:23.728Z,9.68
2022-10-23T09:52:39.819Z,9.93
2022-10-23T09:54:47.693Z,9.68
2022-10-23T09:56:49.998Z,10.05
2022-10-23T09:59:02.099Z,8.93
2022-10-23T10:01:05.804Z,10.05
2022-10-23T10:03:19.150Z,8.50
2022-10-23T10:05:29.382Z,8.00
2022-10-23T10:07:33.484Z,7.50
2022-10-23T10:09:38.138Z,7.50
2022-10-23T10:12:10.748Z,7.88
2022-10-23T10:14:54.237Z,10.15
2022-10-23T10:17:17.670Z,7.60
2022-10-23T10:19:33.883Z,9.07
2022-10-23T10:21:59.020Z,11.02
2022-10-23T10:24:28.243Z,13.38
2022-10-23T10:26:59.343Z,6.60
2022-10-23T10:29:48.747Z,6.78
2022-10-23T10:32:15.384Z,10.57
2022-10-23T10:34:33.251Z,6.88
2022-10-23T10:36:54.994Z,8.35
2022-10-23T10:39:01.519Z,7.90
2022-10-23T10:41:20.576Z,7.80
2022-10-23T10:43:39.399Z,7.28
2022-10-23T10:46:03.980Z,7.03
2022-10-23T10:48:08.892Z,7.50
2022-10-23T10:50:16.789Z,8.95
2022-10-23T10:52:27.897Z,8.00
2022-10-23T10:54:54.323Z,7.68
2022-10-23T10:57:00.203Z,7.38
2022-10-23T10:59:10.897Z,7.30
2022-10-23T11:01:38.959Z,7.68
2022-10-23T11:03:52.569Z,6.90
2022-10-23T11:08:44.440Z,10.32
2022-10-23T11:11:16.884Z,6.65
2022-10-23T11:13:29.513Z,8.32
2022-10-23T11:15:41.117Z,6.90
2022-10-23T11:17:49.387Z,6.65
2022-10-23T11:20:06.401Z,7.43
2022-10-23T11:22:17.207Z,7.25
2022-10-23T11:24:21.991Z,7.07
2022-10-23T11:26:42.272Z,8.25
2022-10-23T11:29:03.368Z,7.00
2022-10-23T11:31:14.436Z,6.88
2022-10-23T11:33:22.103Z,6.65
2022-10-23T11:35:45.757Z,6.35
2022-10-23T11:38:13.104Z,6.75
2022-10-23T11:40:26.001Z,7.07
2022-10-23T11:42:45.808Z,7.07
2022-10-23T11:44:50.963Z,6.60
2022-10-23T11:47:05.918Z,6.68
2022-10-23T11:49:21.223Z,6.78
2022-10-23T11:51:38.317Z,6.45
2022-10-23T11:53:40.884Z,6.93
2022-10-23T11:55:58.471Z,6.40
2022-10-23T11:58:31.971Z,6.82
2022-10-23T12:00:40.198Z,6.32
2022-10-23T12:02:43.643Z,6.35
2022-10-23T12:04:52.164Z,5.35
2022-10-23T12:07:01.833Z,6.53
2022-10-23T12:09:09.573Z,2.20
2022-10-23T12:11:51.630Z,2.30
2022-10-23T12:13:53.801Z,2.15
2022-10-23T12:15:58.525Z,2.50
2022-10-23T12:18:16.719Z,6.72
2022-10-23T12:20:24.728Z,7.00
2022-10-23T12:25:04.256Z,7.05
2022-10-23T12:27:26.813Z,7.70
2022-10-23T12:30:15.935Z,7.05
2022-10-23T12:32:28.103Z,7.28
2022-10-23T12:34:29.988Z,8.15
2022-10-23T12:36:43.931Z,6.97
2022-10-23T12:38:47.432Z,7.43
2022-10-23T12:41:03.110Z,7.38
2022-10-23T12:43:23.560Z,6.65
2022-10-23T12:45:29.524Z,7.63
2022-10-23T12:47:32.334Z,7.25
2022-10-23T12:49:35.739Z,7.55
2022-10-23T12:51:38.640Z,6.70
2022-10-23T12:53:41.525Z,7.68
2022-10-23T12:56:01.539Z,7.18
2022-10-23T12:58:04.432Z,7.38
2022-10-23T13:00:12.578Z,7.32
2022-10-23T13:02:21.986Z,7.45
2022-10-23T13:04:28.154Z,7.43
2022-10-23T13:06:30.215Z,8.35
2022-10-23T13:08:45.332Z,7.90
2022-10-23T13:10:49.666Z,7.75
2022-10-23T13:13:05.057Z,7.63
2022-10-23T13:15:06.893Z,7.60
2022-10-23T13:17:11.730Z,7.82
2022-10-23T13:19:27.567Z,8.10
2022-10-23T13:21:31.046Z,9.02
2022-10-23T13:23:35.066Z,8.18
2022-10-23T13:25:39.337Z,8.60
2022-10-23T13:27:41.856Z,7.60
2022-10-23T13:29:44.055Z,8.30
2022-10-23T13:31:46.352Z,7.55
2022-10-23T13:34:01.347Z,7.95
2022-10-23T13:36:05.513Z,8.73
2022-10-23T13:38:11.665Z,7.95
2022-10-23T13:40:28.322Z,7.85
2022-10-23T13:42:30.288Z,8.85
2022-10-23T13:44:37.688Z,7.90
2022-10-23T13:46:39.872Z,8.05
2022-10-23T13:48:41.893Z,8.13
2022-10-23T13:50:47.030Z,7.97
2022-10-23T13:52:49.209Z,7.93
2022-10-23T13:54:51.254Z,8.00
2022-10-23T13:56:56.122Z,7.90
2022-10-23T13:59:00.418Z,8.23
2022-10-23T14:01:02.989Z,8.32
2022-10-23T14:03:05.786Z,8.20
2022-10-23T14:05:10.199Z,8.25
2022-10-23T14:07:12.251Z,7.60
2022-10-23T14:09:17.154Z,7.38
2022-10-23T14:11:21.570Z,7.10
2022-10-23T14:13:24.801Z,6.68
2022-10-23T14:15:27.337Z,6.75
2022-10-23T14:17:29.337Z,7.43
2022-10-23T14:19:33.502Z,7.60
2022-10-23T14:21:35.609Z,7.40
2022-10-23T14:23:38.109Z,6.80
2022-10-23T14:25:40.458Z,6.45
2022-10-23T14:27:42.865Z,6.40
2022-10-23T14:29:45.201Z,7.03
2022-10-23T14:31:47.189Z,6.80
2022-10-23T14:33:57.308Z,6.38
2022-10-23T14:35:59.546Z,6.47
2022-10-23T14:38:01.810Z,5.93
2022-10-23T14:40:05.881Z,5.97
2022-10-23T14:42:07.889Z,6.03
2022-10-23T14:44:10.900Z,5.82
2022-10-23T14:46:16.338Z,6.15
2022-10-23T14:48:18.769Z,7.20
2022-10-23T14:50:21.749Z,7.03
2022-10-23T14:52:24.707Z,6.10
2022-10-23T14:54:28.860Z,6.57
2022-10-23T14:56:34.467Z,7.15
2022-10-23T14:58:36.551Z,7.18
2022-10-23T15:00:39.742Z,7.38
2022-10-23T15:02:42.014Z,7.22
2022-10-23T15:04:44.472Z,7.18
2022-10-23T15:06:47.506Z,7.50
2022-10-23T15:08:55.874Z,8.07
2022-10-23T15:11:01.767Z,7.65
2022-10-23T15:13:03.743Z,9.30
2022-10-23T15:15:07.669Z,8.75
2022-10-23T15:17:15.372Z,8.30
2022-10-23T15:19:18.851Z,10.98
2022-10-23T15:21:21.131Z,9.52
2022-10-23T15:23:23.666Z,9.38
2022-10-23T15:25:27.595Z,9.10
2022-10-23T15:27:29.728Z,8.02
2022-10-23T15:29:32.221Z,8.63
2022-10-23T15:31:41.161Z,7.72
2022-10-23T15:33:43.253Z,8.05
2022-10-23T15:35:45.669Z,8.88
2022-10-23T15:37:47.733Z,7.85
2022-10-23T15:39:50.710Z,8.30
2022-10-23T15:41:56.359Z,7.60
2022-10-23T15:44:00.039Z,8.75
2022-10-23T15:46:03.487Z,9.52
2022-10-23T15:48:06.165Z,8.75
2022-10-23T15:50:09.072Z,8.38
2022-10-23T15:52:11.922Z,8.93
2022-10-23T15:54:17.303Z,7.95
2022-10-23T15:56:19.293Z,7.95
2022-10-23T15:58:22.570Z,8.60
2022-10-23T16:00:24.925Z,9.07
2022-10-23T16:02:27.553Z,9.07
2022-10-23T16:04:30.325Z,8.20
2022-10-23T16:06:32.485Z,8.52
2022-10-23T16:08:35.803Z,9.40
2022-10-23T16:10:42.271Z,9.63
2022-10-23T16:12:44.422Z,9.38
2022-10-23T16:14:47.371Z,9.35
2022-10-23T16:16:49.759Z,9.10
2022-10-23T16:18:52.332Z,9.75
2022-10-23T16:20:56.218Z,11.77
2022-10-23T16:23:01.993Z,13.82
2022-10-23T16:25:05.324Z,18.27
2022-10-23T16:27:07.601Z,16.35
2022-10-23T16:29:11.811Z,16.58
2022-10-23T16:31:20.800Z,18.20
2022-10-23T16:33:22.992Z,17.55
2022-10-23T16:35:25.608Z,13.63
2022-10-23T16:37:27.942Z,10.45
2022-10-23T16:39:31.741Z,10.50
2022-10-23T16:41:34.002Z,11.20
2022-10-23T16:43:37.706Z,11.20
2022-10-23T16:45:40.218Z,11.45
2022-10-23T16:47:45.564Z,10.30
2022-10-23T16:49:50.051Z,9.65
2022-10-23T16:51:54.682Z,10.25
2022-10-23T16:54:00.177Z,9.88
2022-10-23T16:56:11.551Z,10.70
2022-10-23T16:58:20.531Z,10.05
2022-10-23T17:00:23.779Z,9.27
2022-10-23T17:02:27.425Z,9.80
2022-10-23T17:04:29.885Z,12.05
2022-10-23T17:06:36.527Z,18.15
2022-10-23T17:08:42.698Z,23.70
2022-10-23T17:10:50.237Z,22.98
2022-10-23T17:12:54.264Z,22.42
2022-10-23T17:15:02.577Z,21.35
2022-10-23T17:17:19.974Z,17.25
2022-10-23T17:19:43.808Z,19.08
2022-10-23T17:21:55.713Z,18.35
2022-10-23T17:23:59.412Z,20.25
2022-10-23T17:26:04.483Z,14.30
2022-10-23T17:28:06.923Z,12.43
2022-10-23T17:30:12.880Z,12.07
2022-10-23T17:32:17.232Z,12.30
2022-10-23T17:34:23.794Z,11.80
2022-10-23T17:36:29.927Z,15.82
2022-10-23T17:38:36.507Z,14.57
2022-10-23T17:40:40.548Z,13.10
2022-10-23T17:42:43.117Z,13.25
2022-10-23T17:44:50.725Z,15.38
2022-10-23T17:46:55.421Z,13.90
2022-10-23T17:51:07.991Z,16.92
2022-10-23T17:53:11.772Z,16.90
2022-10-23T17:55:15.043Z,18.50
2022-10-23T17:57:20.971Z,18.00
2022-10-23T17:59:30.305Z,17.73
2022-10-23T18:01:34.062Z,17.38
2022-10-23T18:03:37.638Z,19.75
2022-10-23T18:05:41.455Z,17.98
2022-10-23T18:07:49.175Z,21.58
2022-10-23T18:09:54.696Z,23.98
2022-10-23T18:12:00.284Z,22.15
2022-10-23T18:14:04.935Z,24.42
2022-10-23T18:16:12.520Z,28.55
2022-10-23T18:18:25.147Z,26.25
2022-10-23T18:20:33.056Z,26.55
2022-10-23T18:22:35.920Z,27.20
2022-10-23T18:24:41.100Z,25.48
2022-10-23T18:26:45.674Z,23.88
2022-10-23T18:28:51.344Z,20.98
2022-10-23T18:30:57.603Z,19.75
2022-10-23T18:33:10.250Z,18.25
2022-10-23T18:35:16.193Z,18.85
2022-10-23T18:37:19.964Z,17.65
2022-10-23T18:39:29.220Z,18.33
2022-10-23T18:41:39.862Z,17.70
2022-10-23T18:43:58.688Z,17.70
2022-10-23T18:46:09.439Z,18.10
2022-10-23T18:48:28.431Z,22.35
2022-10-23T18:50:36.154Z,22.00
2022-10-23T18:52:39.680Z,24.40
2022-10-23T18:54:43.485Z,22.08
2022-10-23T18:56:54.292Z,30.15
2022-10-23T18:58:58.770Z,40.92
2022-10-23T19:01:04.297Z,27.63
2022-10-23T19:03:18.018Z,34.97
2022-10-23T19:05:21.031Z,20.63
2022-10-23T19:07:24.571Z,21.80
2022-10-23T19:09:27.226Z,23.90
2022-10-23T19:11:29.938Z,23.20
2022-10-23T19:13:39.823Z,23.42
2022-10-23T19:15:44.290Z,24.40
2022-10-23T19:18:02.024Z,25.83
2022-10-23T19:22:37.845Z,24.50
2022-10-23T19:24:52.212Z,25.35
2022-10-23T19:27:01.894Z,27.25
2022-10-23T19:29:08.023Z,27.55
2022-10-23T19:31:17.827Z,24.10
2022-10-23T19:33:31.567Z,25.10
2022-10-23T19:35:34.427Z,31.90
2022-10-23T19:37:48.941Z,26.35
2022-10-23T19:40:07.389Z,35.70
2022-10-23T19:42:11.672Z,51.10
2022-10-23T19:44:17.880Z,52.03
2022-10-23T19:46:25.457Z,45.58
2022-10-23T19:48:36.041Z,52.15
2022-10-23T19:50:38.546Z,45.33
2022-10-23T19:52:44.703Z,42.30
2022-10-23T19:54:59.526Z,38.28
2022-10-23T19:57:08.551Z,38.75
2022-10-23T19:59:13.772Z,42.78
2022-10-23T20:01:18.526Z,42.60
2022-10-23T20:03:22.683Z,40.72
2022-10-23T20:05:31.984Z,43.00
2022-10-23T20:07:46.652Z,40.22
2022-10-23T20:09:50.159Z,39.90
2022-10-23T20:11:54.770Z,40.83
2022-10-23T20:14:00.537Z,40.78
2022-10-23T20:16:03.221Z,43.78
2022-10-23T20:18:09.728Z,39.00
2022-10-23T20:20:15.506Z,40.35
2022-10-23T20:22:21.110Z,40.08
2022-10-23T20:24:28.074Z,39.70
2022-10-23T20:26:30.952Z,41.72
2022-10-23T20:28:37.033Z,40.72
2022-10-23T20:30:43.149Z,40.20
2022-10-23T20:32:48.746Z,39.13
2022-10-23T20:34:53.556Z,40.83
2022-10-23T20:36:56.337Z,36.20
2022-10-23T20:39:01.363Z,38.50
2022-10-23T20:41:07.640Z,38.47
2022-10-23T20:43:10.026Z,40.30
2022-10-23T20:45:12.134Z,40.67
2022-10-23T20:47:17.470Z,39.17
2022-10-23T20:49:20.235Z,39.38
2022-10-23T20:51:24.242Z,38.22
2022-10-23T20:53:27.508Z,38.38
2022-10-23T20:55:29.840Z,35.85
2022-10-23T20:57:32.299Z,39.63
2022-10-23T20:59:37.516Z,35.65
2022-10-23T21:01:42.530Z,36.47
2022-10-23T21:03:51.350Z,34.30
2022-10-23T21:05:53.709Z,34.47
2022-10-23T21:07:56.314Z,34.72
2022-10-23T21:09:59.613Z,34.05
2022-10-23T21:12:01.584Z,35.63
2022-10-23T21:14:04.016Z,35.47
2022-10-23T21:16:14.997Z,33.63
2022-10-23T21:18:33.645Z,33.75
2022-10-23T21:20:40.623Z,32.90
2022-10-23T21:22:42.684Z,31.38
2022-10-23T21:24:45.365Z,28.98
2022-10-23T21:26:47.890Z,30.27
2022-10-23T21:28:56.385Z,28.40
2022-10-23T21:31:13.999Z,28.85
2022-10-23T21:33:16.078Z,26.23
2022-10-23T21:35:17.948Z,27.17
2022-10-23T21:37:22.144Z,28.20
2022-10-23T21:39:24.207Z,27.55
2022-10-23T21:41:32.094Z,27.27
2022-10-23T21:43:34.906Z,29.10
2022-10-23T21:45:36.953Z,29.48
2022-10-23T21:47:39.116Z,25.63
2022-10-23T21:49:41.006Z,23.95
2022-10-23T21:51:43.328Z,24.00
2022-10-23T21:53:45.295Z,23.48
2022-10-23T21:55:47.300Z,24.13
2022-10-23T21:57:49.493Z,22.58
2022-10-23T21:59:54.254Z,24.67
2022-10-23T22:01:56.505Z,21.55
2022-10-23T22:03:58.830Z,21.10
2022-10-23T22:06:01.749Z,18.75
2022-10-23T22:08:04.211Z,18.80
2022-10-23T22:10:07.634Z,19.73
2022-10-23T22:12:12.829Z,19.58
2022-10-23T22:14:14.733Z,18.80
2022-10-23T22:16:17.833Z,18.00
2022-10-23T22:18:19.921Z,17.17
2022-10-23T22:20:21.856Z,19.13
2022-10-23T22:22:24.057Z,18.35
2022-10-23T22:24:26.034Z,16.50
2022-10-23T22:26:31.293Z,16.30
2022-10-23T22:28:33.354Z,15.90
2022-10-23T22:30:38.196Z,14.68
2022-10-23T22:32:40.268Z,15.00
2022-10-23T22:34:52.362Z,14.38
2022-10-23T22:36:56.573Z,15.02
2022-10-23T22:38:58.560Z,14.02
2022-10-23T22:41:02.248Z,13.07
2022-10-23T22:43:07.607Z,13.90
2022-10-23T22:45:10.830Z,12.10
2022-10-23T22:47:12.737Z,13.25
2022-10-23T22:49:14.889Z,13.45
2022-10-23T22:51:19.180Z,14.35
2022-10-23T22:53:21.173Z,13.50
2022-10-23T22:55:24.148Z,14.15
2022-10-23T22:59:29.107Z,13.95
2022-10-23T23:01:35.202Z,14.35
2022-10-23T23:03:37.746Z,13.38
2022-10-23T23:05:47.885Z,14.15
2022-10-23T23:07:50.973Z,15.55
2022-10-23T23:09:55.561Z,15.35
2022-10-23T23:11:58.007Z,14.07
2022-10-23T23:14:01.279Z,13.98
2022-10-23T23:16:04.546Z,14.63
2022-10-23T23:18:06.868Z,13.57
2022-10-23T23:20:09.559Z,14.68
2022-10-23T23:22:11.452Z,13.75
2022-10-23T23:24:13.487Z,13.20
2022-10-23T23:26:16.313Z,13.70
2022-10-23T23:28:21.442Z,13.07
2022-10-23T23:30:23.788Z,14.15
2022-10-23T23:32:25.778Z,13.45
2022-10-23T23:34:27.939Z,12.35
2022-10-23T23:36:30.038Z,12.70
2022-10-23T23:38:31.912Z,13.18
2022-10-23T23:40:34.212Z,13.15
2022-10-23T23:42:37.166Z,12.80
2022-10-23T23:44:45.951Z,12.65
2022-10-23T23:46:58.830Z,12.43
2022-10-23T23:49:01.812Z,11.85
2022-10-23T23:51:04.861Z,11.63
2022-10-23T23:53:06.883Z,11.70
2022-10-23T23:55:09.231Z,11.30
2022-10-23T23:57:13.174Z,12.38
2022-10-23T23:59:16.255Z,11.93
